Latest Weather Observations for Sydney Olympic Park

IDN60801

Issued at 8:02 pm EST Tuesday 5 May 2015 (issued every 30 minutes, with the page automatically refreshed every 10 minutes)

About weather observations | Map of weather stations | Latest weather observations for NSW | Other Formats
Station Details ID: 066212 Name: SYDNEY OLYMPIC PARK AWS (ARCHERY CENTRE) Lat: -33.83 Lon: 151.07 Height: 4.0 m
Data from the previous 72 hours. | See also: Recent months at Sydney Olympic Park
Date/Time
EST
Temp
°C
App
Temp
°C
Dew
Point
Rel
Hum
%
Delta-T
°C
Wind Press
QNH
hPa
Press
MSL
hPa
Rain
since 9 am
mm
Dir
 
Spd
km/h
Gust
km/h
Spd
kts
Gust
kts
05/08:00pm 17.3 16.8 12.0 71 2.9 SE 6 7 3 4 - - 0.0
05/07:30pm 18.4 18.2 11.7 65 3.7 NNW 4 9 2 5 - - 0.0
05/07:00pm 20.7 19.7 11.1 54 5.3 NNW 7 11 4 6 - - 0.0
05/06:30pm 20.9 20.3 11.8 56 5.1 NNW 6 7 3 4 - - 0.0
05/06:00pm 21.5 20.1 10.9 51 5.8 NNW 9 13 5 7 - - 0.0
05/05:30pm 21.8 20.5 11.2 51 5.9 NNW 9 13 5 7 - - 0.0
05/05:00pm 23.4 21.5 10.5 44 7.1 NNW 11 17 6 9 - - 0.0
05/04:30pm 25.0 22.8 10.8 41 7.9 N 13 22 7 12 - - 0.0
05/04:00pm 25.7 22.8 11.1 40 8.2 NNW 17 24 9 13 - - 0.0
05/03:30pm 26.1 23.2 12.2 42 8.0 NNW 19 30 10 16 - - 0.0
05/03:00pm 26.4 23.1 10.9 38 8.7 NNW 19 32 10 17 - - 0.0
05/02:30pm 26.9 24.2 11.8 39 8.7 NNW 17 28 9 15 - - 0.0
05/02:00pm 26.9 23.1 9.7 34 9.5 NW 20 30 11 16 - - 0.0
05/01:30pm 26.8 25.6 13.9 45 7.7 NW 13 24 7 13 - - 0.0
05/01:00pm 26.4 25.2 13.9 46 7.4 NNW 13 19 7 10 - - 0.0
05/12:30pm 25.5 23.9 14.0 49 6.8 NW 15 26 8 14 - - 0.0
05/12:00pm 25.3 24.6 15.3 54 6.0 NW 13 24 7 13 - - 0.0
05/11:30am 24.9 24.8 16.1 58 5.4 NNW 11 17 6 9 - - 0.0
05/11:00am 23.7 22.0 14.7 57 5.3 NNW 17 26 9 14 - - 0.0
05/10:30am 22.9 21.7 15.0 61 4.7 NNW 15 28 8 15 - - 0.0
05/10:00am 22.5 22.2 16.5 69 3.6 NNW 13 20 7 11 - - 0.0
05/09:30am 21.3 22.9 17.9 81 2.1 NW 6 17 3 9 - - 0.0
05/09:00am 18.4 21.3 18.2 99 0.1 CALM 0 4 0 2 - - 0.0
05/08:30am 15.7 17.5 15.5 99 0.1 CALM 0 6 0 3 - - 0.0
05/08:06am 15.4 17.1 15.2 99 0.1 CALM 0 0 0 0 - - 0.0
05/08:00am 15.3 17.0 15.1 99 0.1 CALM 0 0 0 0 - - 0.0
05/07:30am 15.1 16.7 14.9 99 0.1 CALM 0 0 0 0 - - 0.0
05/07:00am 14.9 16.4 14.7 99 0.1 CALM 0 0 0 0 - - 0.0
05/06:30am 14.8 16.3 14.6 99 0.1 CALM 0 0 0 0 - - 0.0
05/06:00am 15.0 16.6 14.8 99 0.1 CALM 0 2 0 1 - - 0.0
05/05:30am 15.2 16.4 15.0 99 0.1 NW 2 6 1 3 - - 0.0
05/05:00am 15.2 15.5 15.0 99 0.1 WNW 7 15 4 8 - - 0.0
05/04:30am 15.0 14.8 14.8 99 0.1 WNW 9 15 5 8 - - 0.0
05/04:00am 14.8 15.9 14.6 99 0.1 WNW 2 13 1 7 - - 0.0
05/03:30am 14.7 16.1 14.5 99 0.1 CALM 0 0 0 0 - - 0.0
05/03:00am 14.8 16.3 14.6 99 0.1 CALM 0 0 0 0 - - 0.0
05/02:30am 14.1 15.3 13.9 99 0.1 CALM 0 0 0 0 - - 0.0
05/02:00am 14.0 15.2 13.8 99 0.1 CALM 0 0 0 0 - - 0.0
05/01:30am 14.0 15.2 13.8 99 0.1 CALM 0 0 0 0 - - 0.0
05/01:00am 14.4 15.7 14.2 99 0.1 CALM 0 0 0 0 - - 0.0
05/12:30am 14.4 15.7 14.1 98 0.2 CALM 0 0 0 0 - - 0.0
05/12:00am 14.6 16.0 14.3 98 0.2 CALM 0 0 0 0 - - 0.0
 
Date/Time
EST
Temp
°C
App
Temp
°C
Dew
Point
Rel
Hum
%
Delta-T
°C
Wind Press
QNH
hPa
Press
MSL
hPa
Rain
since 9 am
mm
Dir
 
Spd
km/h
Gust
km/h
Spd
kts
Gust
kts
04/11:30pm 14.8 16.2 14.5 98 0.2 CALM 0 0 0 0 - - 0.0
04/11:00pm 14.9 16.4 14.6 98 0.2 CALM 0 0 0 0 - - 0.0
04/10:50pm 15.0 16.5 14.7 98 0.2 CALM 0 0 0 0 - - 0.0
04/10:31pm 15.2 16.8 14.9 98 0.2 CALM 0 0 0 0 - - 0.0
04/10:30pm 15.2 16.8 14.9 98 0.2 CALM 0 0 0 0 - - 0.0
04/10:00pm 15.4 17.1 15.1 98 0.2 CALM 0 0 0 0 - - 0.0
04/09:30pm 15.4 17.0 14.8 96 0.3 CALM 0 0 0 0 - - 0.0
04/09:00pm 15.8 17.5 15.2 96 0.3 CALM 0 0 0 0 - - 0.0
04/08:30pm 16.1 17.9 15.5 96 0.3 CALM 0 0 0 0 - - 0.0
04/08:00pm 16.3 18.1 15.5 95 0.5 CALM 0 0 0 0 - - 0.0
04/07:30pm 16.5 18.3 15.5 94 0.6 CALM 0 0 0 0 - - 0.0
04/07:00pm 16.6 18.3 15.3 92 0.8 CALM 0 2 0 1 - - 0.0
04/06:30pm 17.1 18.8 15.3 89 1.0 CALM 0 0 0 0 - - 0.0
04/06:00pm 18.1 20.0 15.7 86 1.4 CALM 0 0 0 0 - - 0.0
04/05:30pm 19.4 20.1 15.5 78 2.3 E 6 9 3 5 - - 0.0
04/05:00pm 19.9 20.1 15.7 77 2.5 ESE 9 13 5 7 - - 0.0
04/04:30pm 20.6 20.4 15.6 73 3.0 E 11 15 6 8 - - 0.0
04/04:00pm 20.9 21.2 15.9 73 3.0 ESE 9 11 5 6 - - 0.0
04/03:30pm 21.1 21.9 15.9 72 3.1 NE 6 7 3 4 - - 0.0
04/03:00pm 21.5 22.2 15.6 69 3.5 ENE 6 9 3 5 - - 0.0
04/02:30pm 21.8 23.0 15.9 69 3.5 E 4 7 2 4 - - 0.0
04/02:00pm 21.7 22.2 15.5 68 3.7 SE 7 13 4 7 - - 0.0
04/01:30pm 21.7 22.4 15.5 68 3.7 SW 6 11 3 6 - - 0.0
04/01:00pm 21.2 21.3 15.5 70 3.4 SSE 9 13 5 7 - - 0.0
04/12:30pm 21.0 21.1 15.5 71 3.3 SSE 9 11 5 6 - - 0.0
04/12:00pm 20.9 22.1 15.9 73 3.0 S 4 9 2 5 - - 0.0
04/11:30am 20.9 21.8 15.2 70 3.4 SW 4 9 2 5 - - 0.0
04/11:00am 20.6 21.2 15.2 71 3.2 SW 6 11 3 6 - - 0.0
04/10:30am 20.0 20.3 14.6 71 3.1 WSW 6 11 3 6 - - 0.0
04/10:00am 19.6 19.9 14.6 73 2.9 W 6 11 3 6 - - 0.0
04/09:30am 19.3 18.9 14.1 72 3.0 SW 9 15 5 8 - - 0.0
04/09:00am 19.1 18.9 14.6 75 2.6 WSW 9 15 5 8 - - 0.2
04/08:30am 18.4 18.3 13.9 75 2.6 SW 7 11 4 6 - - 0.2
04/08:00am 18.2 18.0 13.7 75 2.6 WSW 7 11 4 6 - - 0.2
04/07:30am 18.0 17.5 13.7 76 2.4 WSW 9 11 5 6 - - 0.2
04/07:00am 17.8 17.7 13.9 78 2.2 SW 7 9 4 5 - - 0.2
04/06:30am 17.8 17.8 13.7 77 2.3 WSW 6 11 3 6 - - 0.2
04/06:00am 18.0 18.2 14.1 78 2.2 WSW 6 11 3 6 - - 0.2
04/05:30am 17.9 17.8 13.8 77 2.3 WSW 7 13 4 7 - - 0.2
04/05:00am 17.9 18.1 14.2 79 2.1 WSW 6 9 3 5 - - 0.2
04/04:30am 17.7 18.7 14.4 81 1.9 WSW 2 9 1 5 - - 0.2
04/04:00am 17.8 18.5 14.5 81 1.9 W 4 9 2 5 - - 0.2
04/03:30am 17.8 18.9 14.5 81 1.9 WSW 2 7 1 4 - - 0.2
04/03:00am 17.8 18.6 14.7 82 1.8 W 4 7 2 4 - - 0.2
04/02:30am 17.8 18.1 14.5 81 1.9 W 6 9 3 5 - - 0.2
04/02:00am 17.7 19.3 14.8 83 1.7 CALM 0 0 0 0 - - 0.2
04/01:30am 17.8 19.2 14.3 80 2.0 CALM 0 0 0 0 - - 0.2
04/01:00am 17.8 19.2 14.5 81 1.9 CALM 0 0 0 0 - - 0.2
04/12:30am 18.0 18.2 14.3 79 2.1 W 6 7 3 4 - - 0.2
04/12:00am 17.8 18.8 14.3 80 2.0 W 2 7 1 4 - - 0.2
 
Date/Time
EST
Temp
°C
App
Temp
°C
Dew
Point
Rel
Hum
%
Delta-T
°C
Wind Press
QNH
hPa
Press
MSL
hPa
Rain
since 9 am
mm
Dir
 
Spd
km/h
Gust
km/h
Spd
kts
Gust
kts
03/11:30pm 17.8 18.6 14.7 82 1.8 W 4 9 2 5 - - 0.2
03/11:00pm 18.0 19.1 14.5 80 2.0 W 2 7 1 4 - - 0.2
03/10:30pm 17.7 18.6 15.1 85 1.5 WNW 4 7 2 4 - - 0.2
03/10:00pm 18.1 19.3 14.8 81 1.9 WSW 2 6 1 3 - - 0.2
03/09:30pm 19.1 19.5 14.8 76 2.5 WSW 6 9 3 5 - - 0.2
03/09:00pm 19.5 19.9 15.2 76 2.5 SW 7 13 4 7 - - 0.2
03/08:30pm 19.6 19.6 15.3 76 2.5 SSW 9 15 5 8 - - 0.2
03/08:00pm 19.7 18.9 15.1 75 2.7 SSW 13 22 7 12 - - 0.2
03/07:30pm 19.8 19.0 15.2 75 2.7 SSW 13 26 7 14 - - 0.2
03/07:00pm 19.7 19.0 15.4 76 2.5 S 13 20 7 11 - - 0.2
03/06:30pm 19.9 19.2 15.3 75 2.7 S 13 24 7 13 - - 0.2
03/06:00pm 19.9 19.7 15.7 77 2.5 SSE 11 19 6 10 - - 0.2
03/05:30pm 20.2 19.9 16.4 79 2.3 SSE 13 24 7 13 - - 0.2
03/05:00pm 20.4 19.4 16.6 79 2.3 S 17 30 9 16 - - 0.2
03/04:30pm 20.7 20.2 16.9 79 2.3 S 15 24 8 13 - - 0.2
03/04:00pm 21.0 20.5 16.8 77 2.6 S 15 24 8 13 - - 0.2
03/03:30pm 21.2 20.3 16.8 76 2.7 S 17 28 9 15 - - 0.2
03/03:00pm 21.4 21.3 17.0 76 2.7 SSE 13 20 7 11 - - 0.2
03/02:30pm 21.7 21.1 17.5 77 2.6 S 17 33 9 18 - - 0.2
03/02:00pm 21.7 21.2 17.9 79 2.4 S 17 32 9 17 - - 0.2
03/01:30pm 21.4 21.1 18.2 82 2.0 SSE 17 26 9 14 - - 0.2
03/01:00pm 21.6 20.7 17.8 79 2.4 S 19 33 10 18 - - 0.2
03/12:30pm 21.5 22.1 18.5 83 1.9 SSW 13 20 7 11 - - 0.2
03/12:00pm 20.8 20.6 18.4 86 1.5 S 17 26 9 14 - - 0.2
03/11:30am 20.2 21.2 18.7 91 0.9 S 11 17 6 9 - - 0.2
03/11:00am 20.0 21.0 18.7 92 0.8 S 11 20 6 11 - - 0.2
03/10:30am 19.9 21.5 19.2 96 0.4 SSW 9 15 5 8 - - 0.2
03/10:00am 19.4 22.0 19.2 99 0.1 W 4 9 2 5 - - 0.0
03/09:30am 19.0 21.4 18.8 99 0.1 WSW 4 9 2 5 - - 0.0
03/09:00am 19.0 21.4 18.8 99 0.1 W 4 7 2 4 - - 46.6
03/08:30am 19.3 21.2 19.0 98 0.2 SSW 7 13 4 7 - - 46.6
03/08:00am 19.2 21.3 18.9 98 0.2 SSW 6 9 3 5 - - 46.4
03/07:30am 19.0 20.8 18.8 99 0.1 SSW 7 11 4 6 - - 46.4
03/07:00am 19.0 20.5 18.8 99 0.1 SSW 9 11 5 6 - - 46.4
03/06:30am 19.0 20.5 18.8 99 0.1 SSW 9 17 5 9 - - 46.2
03/06:00am 19.1 20.2 18.9 99 0.1 SSW 11 19 6 10 - - 45.8
03/05:30am 19.1 20.2 18.9 99 0.1 S 11 19 6 10 - - 45.8
03/05:00am 19.1 20.6 18.9 99 0.1 S 9 13 5 7 - - 45.6
03/04:30am 19.1 20.6 18.9 99 0.1 S 9 17 5 9 - - 45.6
03/04:00am 18.9 20.3 18.7 99 0.1 S 9 15 5 8 - - 45.6
03/03:30am 18.8 20.2 18.6 99 0.1 SSW 9 15 5 8 - - 45.2
03/03:00am 18.8 20.5 18.6 99 0.1 SW 7 11 4 6 - - 45.2
03/02:30am 18.9 19.9 18.7 99 0.1 SSW 11 20 6 11 - - 45.2
03/02:00am 18.8 20.7 18.6 99 0.1 SSW 6 9 3 5 - - 45.2
03/01:30am 18.8 20.7 18.6 99 0.1 S 6 9 3 5 - - 45.2
03/01:00am 18.9 20.7 18.7 99 0.1 S 7 17 4 9 - - 45.2
03/12:30am 18.9 20.7 18.7 99 0.1 S 7 15 4 8 - - 45.2
03/12:00am 18.8 20.5 18.6 99 0.1 SE 7 9 4 5 - - 45.2
 
Date/Time
EST
Temp
°C
App
Temp
°C
Dew
Point
Rel
Hum
%
Delta-T
°C
Wind Press
QNH
hPa
Press
MSL
hPa
Rain
since 9 am
mm
Dir
 
Spd
km/h
Gust
km/h
Spd
kts
Gust
kts
02/11:30pm 18.7 20.6 18.5 99 0.1 S 6 11 3 6 - - 45.2
02/11:29pm 18.7 20.6 18.5 99 0.1 S 6 11 3 6 - - 45.2
02/11:00pm 18.8 20.7 18.6 99 0.1 SSE 6 11 3 6 - - 44.8
02/10:30pm 18.8 20.5 18.6 99 0.1 SSE 7 11 4 6 - - 42.8
02/10:00pm 18.8 19.8 18.6 99 0.1 S 11 15 6 8 - - 39.4
02/09:30pm 18.9 20.9 18.7 99 0.1 SSE 6 9 3 5 - - 32.6
02/09:02pm 18.8 20.7 18.6 99 0.1 SE 6 9 3 5 - - 24.8
02/09:00pm 18.8 20.7 18.6 99 0.1 SE 6 9 3 5 - - 24.6
02/08:31pm 18.8 20.5 18.6 99 0.1 S 7 13 4 7 - - 24.2
02/08:30pm 18.8 20.5 18.6 99 0.1 S 7 13 4 7 - - 24.2

Other Formats:

Comma delimited format used in spreadsheet applications
http://www.bom.gov.au/fwo/IDN60801/IDN60801.95765.axf

JavaScript Object Notation format (JSON) in row-major order
http://www.bom.gov.au/fwo/IDN60801/IDN60801.95765.json